Time;durP1;ratioP1;P1;durP2;ratioP2;P2;SDS_P1;SDS_P2;PMS_P1;PMS_P2;Temp;Humidity;BMP_temperature;BMP_pressure;BME280_temperature;BME280_humidity;BME280_pressure;Samples;Min_cycle;Max_cycle;Signal;HPM_P1;HPM_P2
2022/04/25 00:00:47;;;;;;;8.82;7.03;;;;;;;7.71;89.99;101052.63;10359629;28;20049;-77
2022/04/25 00:05:48;;;;;;;19.13;7.07;;;;;;;7.68;92.16;101052.97;10375561;28;20530;-76
2022/04/25 00:10:48;;;;;;;13.65;6.80;;;;;;;7.70;91.10;101048.25;10373883;28;20121;-77
2022/04/25 00:15:49;;;;;;;14.65;6.60;;;;;;;7.65;88.49;101046.06;10373194;28;20116;-77
2022/04/25 00:20:49;;;;;;;7.45;6.65;;;;;;;7.59;89.34;101054.84;10357820;28;20434;-77
2022/04/25 00:25:50;;;;;;;12.25;7.65;;;;;;;7.57;90.42;101048.81;10374732;28;20088;-76
2022/04/25 00:30:50;;;;;;;11.35;7.60;;;;;;;7.53;91.50;101050.19;10357830;28;20394;-75
2022/04/25 00:35:50;;;;;;;11.75;8.35;;;;;;;7.54;94.47;101049.16;10356525;28;20041;-76
2022/04/25 00:40:51;;;;;;;11.65;7.80;;;;;;;7.58;92.37;101045.09;10357918;28;20124;-77
2022/04/25 00:45:51;;;;;;;11.93;8.30;;;;;;;7.58;92.45;101050.50;10382300;28;20065;-78
2022/04/25 00:50:51;;;;;;;17.17;9.15;;;;;;;7.53;92.98;101047.50;10382602;28;20042;-77
2022/04/25 00:55:52;;;;;;;10.20;7.63;;;;;;;7.55;92.25;101047.31;10363661;28;20061;-75
2022/04/25 01:00:52;;;;;;;16.10;9.30;;;;;;;7.57;93.31;101050.69;10364161;28;20046;-77
2022/04/25 01:05:53;;;;;;;8.50;7.43;;;;;;;7.60;93.19;101045.78;10347644;28;20402;-78
2022/04/25 01:10:55;;;;;;;12.13;7.70;;;;;;;7.57;94.91;101032.66;10381009;28;20120;-76
2022/04/25 01:15:56;;;;;;;9.50;8.48;;;;;;;7.65;91.70;101045.25;10381409;28;20103;-76
2022/04/25 01:20:56;;;;;;;17.45;9.07;;;;;;;7.57;91.51;101034.50;10380289;28;20466;-78
2022/04/25 01:31:16;;;;;;;7.47;6.38;;;;;;;7.54;91.36;101029.47;10379063;28;20034;-78
2022/04/25 01:36:16;;;;;;;10.75;8.25;;;;;;;7.49;91.48;101027.28;10362831;28;20038;-78
2022/04/25 01:41:16;;;;;;;9.43;6.90;;;;;;;7.41;90.78;101024.63;10362378;28;20052;-77
2022/04/25 01:46:17;;;;;;;8.35;7.63;;;;;;;7.41;88.94;101021.94;10379230;28;20026;-75
2022/04/25 01:51:18;;;;;;;18.83;8.80;;;;;;;7.35;90.63;101023.47;10379241;28;20114;-77
2022/04/25 01:56:19;;;;;;;11.07;7.57;;;;;;;7.25;89.67;101013.91;10380099;28;20030;-77
2022/04/25 02:01:20;;;;;;;8.40;7.43;;;;;;;7.25;89.92;101028.22;10379454;28;20116;-76
2022/04/25 02:06:20;;;;;;;12.98;7.25;;;;;;;7.26;89.96;101023.66;10379048;28;20384;-76
2022/04/25 02:11:22;;;;;;;12.23;8.05;;;;;;;7.29;89.33;101015.25;10360739;28;20089;-78
2022/04/25 02:16:22;;;;;;;11.18;8.55;;;;;;;7.35;89.42;101025.31;10345972;28;20124;-78
2022/04/25 02:21:23;;;;;;;12.10;8.45;;;;;;;7.34;87.68;101013.72;10378391;28;20565;-77
2022/04/25 02:26:24;;;;;;;11.68;8.00;;;;;;;7.40;87.82;101012.16;10378394;28;20111;-77
2022/04/25 02:31:24;;;;;;;11.05;7.22;;;;;;;7.62;90.23;101014.09;10378808;28;20492;-77
2022/04/25 02:36:25;;;;;;;14.45;9.13;;;;;;;7.86;93.55;101020.38;10377469;28;20026;-77
2022/04/25 02:41:25;;;;;;;14.18;9.75;;;;;;;8.11;92.49;101015.69;10376383;28;20354;-77
2022/04/25 02:46:25;;;;;;;13.45;7.50;;;;;;;8.30;91.87;101012.53;10360042;28;20066;-76
2022/04/25 02:51:27;;;;;;;9.73;7.97;;;;;;;8.40;93.16;101017.72;10377903;28;20037;-76
2022/04/25 02:56:27;;;;;;;15.25;9.65;;;;;;;8.41;92.40;101010.44;10377419;28;20481;-77
2022/04/25 03:01:28;;;;;;;14.48;8.73;;;;;;;8.21;92.22;101007.38;10377565;28;20038;-76
2022/04/25 03:06:28;;;;;;;11.48;7.53;;;;;;;8.13;90.06;101009.06;10376161;28;20438;-76
2022/04/25 03:11:28;;;;;;;16.02;8.35;;;;;;;8.00;91.09;101014.22;10375381;28;20096;-76
2022/04/25 03:16:29;;;;;;;20.13;9.27;;;;;;;7.97;91.48;101014.56;10359838;28;20026;-76
2022/04/25 03:21:29;;;;;;;15.93;8.25;;;;;;;8.05;93.37;101011.00;10376814;28;20508;-77
2022/04/25 03:26:30;;;;;;;13.90;7.85;;;;;;;8.14;93.31;101005.38;10376573;28;20057;-75
2022/04/25 03:31:30;;;;;;;9.43;7.00;;;;;;;8.28;91.80;101005.63;10342003;28;20030;-77
2022/04/25 03:36:34;;;;;;;13.85;7.80;;;;;;;8.29;91.92;100991.09;10375014;28;20589;-75
2022/04/25 03:41:34;;;;;;;16.95;8.25;;;;;;;8.32;92.42;100999.66;10357888;28;20046;-76
2022/04/25 03:46:34;;;;;;;13.63;6.82;;;;;;;8.39;92.35;101002.53;10375274;28;20034;-76
2022/04/25 03:51:35;;;;;;;11.75;8.07;;;;;;;8.44;90.60;101010.91;10373904;28;20037;-76
2022/04/25 04:01:54;;;;;;;24.17;8.68;;;;;;;8.22;91.28;101012.56;10373927;28;20088;-76
2022/04/25 04:06:55;;;;;;;12.15;7.38;;;;;;;8.34;92.03;101013.00;10356981;28;20054;-77
2022/04/25 04:11:55;;;;;;;13.13;7.70;;;;;;;8.48;90.85;101017.63;10374073;28;20045;-76
2022/04/25 04:16:55;;;;;;;16.13;9.85;;;;;;;8.49;92.17;101021.19;10375126;28;20026;-76
2022/04/25 04:21:56;;;;;;;15.77;8.60;;;;;;;8.45;89.63;101020.69;10376949;28;20366;-76
2022/04/25 04:26:56;;;;;;;13.93;8.20;;;;;;;8.47;92.82;101015.13;10384643;28;20069;-75
2022/04/25 04:32:01;;;;;;;16.10;8.50;;;;;;;8.64;90.99;101022.06;10374094;28;20492;-75
2022/04/25 04:37:02;;;;;;;14.02;8.75;;;;;;;8.70;91.29;101028.59;10372700;28;20041;-77
2022/04/25 04:42:03;;;;;;;13.30;8.77;;;;;;;8.88;90.77;101034.50;10371946;28;20060;-77
2022/04/25 04:47:04;;;;;;;12.77;7.75;;;;;;;8.99;90.38;101038.63;10373786;28;20038;-76
2022/04/25 04:52:04;;;;;;;14.25;9.13;;;;;;;8.99;92.35;101044.84;10373247;28;20371;-76
2022/04/25 04:57:05;;;;;;;10.95;8.75;;;;;;;8.99;92.07;101046.72;10373743;28;20030;-76
2022/04/25 05:02:06;;;;;;;22.98;9.30;;;;;;;9.03;91.48;101048.88;10355583;28;20062;-79
2022/04/25 05:07:06;;;;;;;19.67;10.43;;;;;;;9.22;90.80;101054.75;10356283;28;20479;-77
2022/04/25 05:12:08;;;;;;;39.67;10.93;;;;;;;9.39;89.59;101050.88;10356386;28;20458;-77
2022/04/25 05:17:08;;;;;;;37.30;15.93;;;;;;;9.57;91.03;101055.88;10356059;28;20053;-79
2022/04/25 05:22:08;;;;;;;16.80;11.20;;;;;;;9.78;89.94;101058.69;10373302;28;20060;-77
2022/04/25 05:27:09;;;;;;;17.10;9.88;;;;;;;9.78;89.11;101065.94;10375443;28;20030;-78
2022/04/25 05:32:09;;;;;;;19.05;10.75;;;;;;;9.60;90.74;101070.91;10362907;28;20533;-77
2022/04/25 05:37:09;;;;;;;12.70;10.65;;;;;;;9.83;91.19;101074.34;10362411;28;20030;-76
2022/04/25 05:42:10;;;;;;;14.73;11.32;;;;;;;10.72;89.92;101076.84;10381359;28;20056;-76
2022/04/25 05:47:10;;;;;;;15.43;10.57;;;;;;;10.48;87.86;101081.59;10362180;28;20474;-78
2022/04/25 05:52:11;;;;;;;15.30;10.07;;;;;;;9.89;88.08;101080.84;10346203;28;20061;-77
2022/04/25 05:57:11;;;;;;;17.38;10.73;;;;;;;9.68;87.50;101085.16;10362463;28;20466;-77
2022/04/25 06:02:13;;;;;;;21.63;11.38;;;;;;;9.61;89.52;101100.47;10362983;28;20045;-78
2022/04/25 06:07:13;;;;;;;10.35;8.95;;;;;;;9.44;89.36;101098.97;10361676;28;20133;-77
2022/04/25 06:12:14;;;;;;;15.98;9.73;;;;;;;9.38;91.41;101116.78;10379943;28;20091;-79
2022/04/25 06:17:15;;;;;;;13.77;10.82;;;;;;;9.40;92.92;101122.81;10379204;28;20091;-78
2022/04/25 06:22:18;;;;;;;12.93;10.25;;;;;;;9.43;93.46;101108.94;10377319;28;20029;-77
2022/04/25 06:27:18;;;;;;;16.58;11.68;;;;;;;9.48;92.73;101117.34;10378415;28;20029;-78
2022/04/25 06:32:19;;;;;;;22.15;11.90;;;;;;;9.45;94.05;101116.88;10378211;28;20378;-77
2022/04/25 06:37:20;;;;;;;22.40;10.95;;;;;;;9.35;95.41;101125.25;10374795;28;20088;-78
2022/04/25 06:42:21;;;;;;;17.73;9.98;;;;;;;9.30;95.94;101130.34;10319176;28;20082;-77
2022/04/25 06:47:22;;;;;;;13.27;11.77;;;;;;;9.32;95.94;101121.03;10336872;28;20054;-77
2022/04/25 06:52:22;;;;;;;15.45;10.15;;;;;;;9.44;94.98;101134.09;10302463;28;20047;-78
2022/04/25 06:57:23;;;;;;;12.15;9.40;;;;;;;9.47;94.89;101148.06;10304366;28;20034;-78
2022/04/25 07:02:23;;;;;;;10.68;8.65;;;;;;;9.47;94.05;101148.06;10337035;28;20049;-75
2022/04/25 07:07:25;;;;;;;15.23;9.02;;;;;;;9.44;95.31;101155.72;10336593;28;20033;-77
2022/04/25 07:12:27;;;;;;;15.63;13.27;;;;;;;9.22;96.71;101152.03;10336955;28;20063;-78
2022/04/25 07:17:28;;;;;;;14.05;10.52;;;;;;;9.16;98.30;101163.59;10317866;28;20069;-76
2022/04/25 07:33:06;;;;;;;15.18;12.07;;;;;;;9.16;100.00;101172.53;10337188;28;20390;-77
2022/04/25 07:38:07;;;;;;;14.55;10.45;;;;;;;8.93;100.00;101175.22;10335717;28;20038;-78
2022/04/25 07:43:08;;;;;;;14.77;10.07;;;;;;;8.78;100.00;101182.44;10376264;28;20068;-78
2022/04/25 07:48:08;;;;;;;11.05;8.57;;;;;;;8.78;100.00;101183.28;10358198;28;20144;-77
2022/04/25 07:53:08;;;;;;;17.38;10.02;;;;;;;8.82;100.00;101183.75;10374915;28;20042;-77
2022/04/25 07:58:09;;;;;;;21.20;11.80;;;;;;;8.91;100.00;101180.00;10378858;28;20107;-77
2022/04/25 08:03:09;;;;;;;14.10;12.13;;;;;;;8.94;100.00;101185.03;10376530;28;20440;-76
2022/04/25 08:08:10;;;;;;;13.93;12.05;;;;;;;9.03;100.00;101183.09;10356894;28;20474;-76
2022/04/25 08:18:29;;;;;;;20.67;12.85;;;;;;;9.32;100.00;101196.72;10374788;28;20026;-75
2022/04/25 08:23:29;;;;;;;18.38;13.25;;;;;;;9.66;100.00;101199.94;10357494;28;20038;-76
2022/04/25 08:28:30;;;;;;;16.73;14.48;;;;;;;9.59;100.00;101205.25;10356912;28;20084;-76
2022/04/25 08:33:30;;;;;;;15.70;13.00;;;;;;;9.50;100.00;101212.59;10376093;28;20034;-77
2022/04/25 08:38:31;;;;;;;30.75;13.85;;;;;;;9.43;100.00;101219.75;10373967;28;20481;-77
2022/04/25 08:43:31;;;;;;;19.00;13.55;;;;;;;9.45;100.00;101222.28;10339721;28;20045;-76
2022/04/25 08:48:31;;;;;;;20.27;14.32;;;;;;;9.46;100.00;101221.25;10356881;28;20061;-77
2022/04/25 08:53:33;;;;;;;22.02;16.60;;;;;;;9.37;100.00;101231.28;10356162;28;20026;-77
2022/04/25 08:58:35;;;;;;;18.67;14.73;;;;;;;9.49;100.00;101232.53;10356330;28;20354;-77
2022/04/25 09:03:36;;;;;;;23.80;15.57;;;;;;;9.69;100.00;101232.03;10379543;28;20062;-76
2022/04/25 09:08:38;;;;;;;14.98;13.43;;;;;;;9.78;100.00;101234.47;10381600;28;20034;-76
2022/04/25 09:13:39;;;;;;;21.33;14.25;;;;;;;10.06;100.00;101246.56;10363354;28;20397;-77
2022/04/25 09:18:39;;;;;;;18.35;12.30;;;;;;;10.26;100.00;101245.00;10365002;28;20125;-76
2022/04/25 09:23:40;;;;;;;19.73;14.30;;;;;;;10.46;100.00;101254.25;10380906;28;20382;-77
2022/04/25 09:28:54;;;;;;;17.40;12.95;;;;;;;10.88;100.00;101244.53;10385513;28;20034;-77
2022/04/25 09:33:55;;;;;;;20.80;11.55;;;;;;;10.99;100.00;101255.91;10365107;28;20033;-77
2022/04/25 09:38:56;;;;;;;12.45;11.15;;;;;;;11.07;100.00;101247.63;10363586;28;20068;-77
2022/04/25 09:43:58;;;;;;;16.13;12.60;;;;;;;10.88;100.00;101252.66;10383323;28;20371;-76
2022/04/25 09:49:03;;;;;;;14.75;11.80;;;;;;;10.74;100.00;101258.94;10364481;28;20037;-75
2022/04/25 09:54:04;;;;;;;15.85;11.77;;;;;;;10.68;100.00;101254.28;10362934;28;20066;-77
2022/04/25 09:59:06;;;;;;;23.27;13.20;;;;;;;10.63;100.00;101273.00;10387879;28;20041;-78
2022/04/25 10:04:33;;;;;;;15.73;12.65;;;;;;;10.45;100.00;101278.78;10368155;28;20033;-79
2022/04/25 10:09:34;;;;;;;19.65;13.35;;;;;;;10.26;100.00;101282.88;10386618;28;20067;-78
2022/04/25 10:14:35;;;;;;;16.50;12.18;;;;;;;10.09;100.00;101281.34;10390515;28;20045;-79
2022/04/25 10:19:35;;;;;;;16.17;12.55;;;;;;;10.17;100.00;101297.50;10372756;28;20033;-76
2022/04/25 10:24:36;;;;;;;19.15;14.15;;;;;;;10.33;100.00;101291.94;10377256;28;20026;-79
2022/04/25 10:29:37;;;;;;;20.00;14.23;;;;;;;10.52;100.00;101290.53;10387645;28;20044;-77
2022/04/25 10:34:51;;;;;;;19.42;13.55;;;;;;;10.88;100.00;101298.72;10359642;28;20026;-79
2022/04/25 10:39:51;;;;;;;17.65;12.93;;;;;;;11.12;100.00;101294.81;10392840;28;20045;-78
2022/04/25 10:44:53;;;;;;;14.95;12.73;;;;;;;11.17;100.00;101303.22;10388945;28;20026;-79
2022/04/25 10:49:55;;;;;;;17.17;13.02;;;;;;;10.43;100.00;101311.47;10366416;28;20219;-78
2022/04/25 10:55:33;;;;;;;21.27;13.35;;;;;;;10.12;100.00;101308.88;10382823;28;20058;-79
2022/04/25 11:00:36;;;;;;;18.88;13.00;;;;;;;10.02;100.00;101321.84;10379525;28;20046;-77
2022/04/25 11:05:38;;;;;;;17.77;11.05;;;;;;;9.71;100.00;101328.19;10359559;28;20034;-77
2022/04/25 11:11:00;;;;;;;13.93;10.82;;;;;;;9.52;100.00;101336.78;10359502;28;20549;-77
2022/04/25 11:16:15;;;;;;;18.52;11.65;;;;;;;9.38;100.00;101343.81;10360543;28;20026;-78
2022/04/25 11:21:16;;;;;;;16.30;11.77;;;;;;;9.49;100.00;101346.09;10376949;28;20030;-77
2022/04/25 11:26:23;;;;;;;15.45;11.88;;;;;;;9.74;100.00;101354.03;10375637;28;20040;-75
2022/04/25 11:31:33;;;;;;;17.30;13.52;;;;;;;9.86;100.00;101347.19;10376154;28;20038;-77
2022/04/25 11:36:37;;;;;;;19.80;11.82;;;;;;;9.97;100.00;101362.13;10375335;28;20119;-76
2022/04/25 11:41:37;;;;;;;13.82;11.18;;;;;;;9.74;100.00;101352.16;10361518;28;20493;-78
2022/04/25 11:46:38;;;;;;;15.98;12.13;;;;;;;9.91;100.00;101344.75;10384168;28;20036;-79
2022/04/25 11:51:39;;;;;;;17.08;12.55;;;;;;;10.02;100.00;101357.84;10381429;28;20034;-79
2022/04/25 11:56:39;;;;;;;17.50;12.65;;;;;;;10.06;100.00;101354.78;10373303;28;20038;-78
2022/04/25 12:01:41;;;;;;;18.10;12.20;;;;;;;10.23;100.00;101359.84;10368956;28;20038;-78
2022/04/25 12:07:00;;;;;;;15.90;12.20;;;;;;;10.62;100.00;101371.50;10392256;28;20038;-78
2022/04/25 12:17:20;;;;;;;17.80;11.95;;;;;;;12.01;100.00;101366.88;10372774;28;20080;-79
2022/04/25 12:22:22;;;;;;;13.30;10.93;;;;;;;12.01;100.00;101375.03;10378331;28;20069;-79
2022/04/25 12:27:22;;;;;;;13.43;11.68;;;;;;;11.93;100.00;101372.44;10360349;28;20030;-78
2022/04/25 12:32:23;;;;;;;21.30;12.65;;;;;;;11.73;100.00;101364.91;10374567;28;20104;-77
2022/04/25 12:37:23;;;;;;;12.77;11.48;;;;;;;11.28;100.00;101371.53;10377040;28;20062;-78
2022/04/25 12:42:42;;;;;;;14.05;9.60;;;;;;;11.04;100.00;101384.38;10364893;28;20054;-78
2022/04/25 12:47:44;;;;;;;23.33;12.18;;;;;;;10.78;100.00;101381.31;10366978;28;20036;-77
2022/04/25 12:52:49;;;;;;;16.50;12.52;;;;;;;10.63;100.00;101386.75;10380983;28;20456;-77
2022/04/25 12:57:52;;;;;;;12.88;11.25;;;;;;;10.61;100.00;101399.63;10382972;28;20056;-77
2022/04/25 13:03:02;;;;;;;12.80;10.80;;;;;;;10.43;100.00;101399.94;10364629;28;20147;-77
2022/04/25 13:08:02;;;;;;;16.23;11.77;;;;;;;10.79;100.00;101391.97;10379822;28;20455;-76
2022/04/25 13:13:02;;;;;;;13.55;10.93;;;;;;;11.26;100.00;101397.97;10381337;28;20053;-78
2022/04/25 13:18:03;;;;;;;27.13;12.82;;;;;;;11.39;100.00;101396.28;10381803;28;20462;-77
2022/04/25 13:23:04;;;;;;;19.73;12.48;;;;;;;11.61;100.00;101408.03;10380443;28;20034;-77
2022/04/25 13:28:05;;;;;;;18.13;11.98;;;;;;;11.65;100.00;101397.63;10379353;28;20457;-79
2022/04/25 13:33:05;;;;;;;18.50;12.55;;;;;;;11.88;100.00;101402.06;10364463;28;20038;-78
2022/04/25 13:38:06;;;;;;;15.27;11.50;;;;;;;12.05;100.00;101398.88;10362806;28;20026;-78
2022/04/25 13:43:08;;;;;;;15.35;12.18;;;;;;;11.83;100.00;101406.13;10382413;28;20050;-78
2022/04/25 13:48:09;;;;;;;20.92;12.73;;;;;;;11.80;100.00;101416.53;10362810;28;20034;-78
2022/04/25 13:53:10;;;;;;;17.67;11.85;;;;;;;11.36;100.00;101417.53;10380821;28;20117;-77
2022/04/25 13:58:11;;;;;;;21.45;11.95;;;;;;;11.50;100.00;101421.22;10364855;28;20484;-78
2022/04/25 14:03:12;;;;;;;20.73;12.00;;;;;;;11.10;100.00;101412.59;10379836;28;20421;-78
2022/04/25 14:08:13;;;;;;;22.05;13.77;;;;;;;11.19;100.00;101408.75;10361528;28;20038;-77
2022/04/25 14:13:14;;;;;;;17.55;12.02;;;;;;;11.30;100.00;101402.84;10379069;28;20069;-78
2022/04/25 14:18:14;;;;;;;24.50;12.07;;;;;;;11.27;100.00;101413.25;10361164;28;20025;-76
2022/04/25 14:23:14;;;;;;;21.67;13.90;;;;;;;10.96;100.00;101417.00;10378638;28;20038;-77
2022/04/25 14:28:15;;;;;;;14.63;13.13;;;;;;;10.62;100.00;101407.53;10376787;28;20065;-77
2022/04/25 14:33:15;;;;;;;20.95;12.65;;;;;;;10.52;100.00;101419.69;10344096;28;20164;-77
2022/04/25 14:38:22;;;;;;;23.95;12.52;;;;;;;10.31;100.00;101415.81;10377778;28;20034;-76
2022/04/25 14:43:22;;;;;;;;;;;;;;;10.44;100.00;101421.44;10378521;28;20050;-77
2022/04/25 14:48:23;;;;;;;18.98;12.93;;;;;;;10.68;100.00;101416.78;10378249;28;19918;-77
2022/04/25 14:58:42;;;;;;;17.90;13.48;;;;;;;10.87;100.00;101418.94;10375628;28;20105;-77
2022/04/25 15:03:44;;;;;;;20.23;12.60;;;;;;;11.08;100.00;101417.38;10359026;28;20034;-77
2022/04/25 15:08:44;;;;;;;21.85;12.98;;;;;;;11.18;100.00;101413.34;10377589;28;20048;-77
2022/04/25 15:13:44;;;;;;;20.33;14.80;;;;;;;10.94;100.00;101429.88;10376002;28;20497;-76
2022/04/25 15:18:45;;;;;;;19.42;13.18;;;;;;;10.86;100.00;101430.81;10359693;28;20077;-77
2022/04/25 15:23:45;;;;;;;18.63;13.50;;;;;;;10.68;100.00;101433.03;10375604;28;20034;-78
2022/04/25 15:28:45;;;;;;;19.63;13.18;;;;;;;10.80;100.00;101436.97;10378365;28;20453;-77
2022/04/25 15:33:46;;;;;;;17.48;13.02;;;;;;;10.68;100.00;101443.88;10359616;28;20046;-76
2022/04/25 15:38:46;;;;;;;16.83;12.63;;;;;;;10.53;100.00;101443.88;10358173;28;20050;-77
2022/04/25 15:43:47;;;;;;;21.65;11.57;;;;;;;10.55;100.00;101449.94;10358196;28;20050;-78
2022/04/25 15:48:47;;;;;;;19.88;12.07;;;;;;;10.53;100.00;101443.00;10375772;28;20042;-75
2022/04/25 15:59:07;;;;;;;16.30;12.63;;;;;;;10.48;100.00;101447.13;10360062;28;20034;-76
2022/04/25 16:04:07;;;;;;;15.75;12.23;;;;;;;10.57;100.00;101452.47;10376047;28;20034;-77
2022/04/25 16:09:08;;;;;;;15.18;10.43;;;;;;;10.52;100.00;101454.88;10375320;28;20136;-78
2022/04/25 16:14:08;;;;;;;16.73;12.93;;;;;;;10.68;100.00;101449.28;10357233;28;20038;-77
2022/04/25 16:19:08;;;;;;;16.30;11.90;;;;;;;10.81;100.00;101446.78;10341228;28;20065;-76
2022/04/25 16:24:09;;;;;;;15.15;11.73;;;;;;;10.92;100.00;101451.75;10356722;28;20042;-77
2022/04/25 16:29:10;;;;;;;15.43;12.18;;;;;;;10.91;100.00;101452.78;10374634;28;20045;-77
2022/04/25 16:34:10;;;;;;;30.13;13.50;;;;;;;10.90;100.00;101456.50;10356983;28;20036;-77
2022/04/25 16:39:11;;;;;;;20.42;12.43;;;;;;;10.86;100.00;101459.78;10374076;28;20150;-76
2022/04/25 16:44:12;;;;;;;19.27;14.20;;;;;;;10.75;100.00;101460.22;10375661;28;20108;-77
2022/04/25 16:49:12;;;;;;;22.33;13.07;;;;;;;10.63;100.00;101465.28;10357014;28;20112;-77
2022/04/25 16:54:13;;;;;;;17.30;12.13;;;;;;;10.60;100.00;101465.66;10342644;28;20033;-75
2022/04/25 16:59:13;;;;;;;22.38;12.70;;;;;;;10.61;100.00;101460.03;10375165;28;20426;-78
2022/04/25 17:04:13;;;;;;;17.63;12.98;;;;;;;10.73;100.00;101468.56;10373345;28;20038;-78
2022/04/25 17:09:14;;;;;;;16.27;10.70;;;;;;;10.87;100.00;101462.31;10362033;28;20048;-77
2022/04/25 17:14:14;;;;;;;14.40;12.18;;;;;;;10.84;100.00;101476.22;10374229;28;20030;-75
2022/04/25 17:19:15;;;;;;;20.38;10.88;;;;;;;10.79;100.00;101481.38;10372873;28;20129;-78
2022/04/25 17:24:15;;;;;;;23.65;13.25;;;;;;;10.81;100.00;101482.00;10378807;28;20036;-78
2022/04/25 17:29:16;;;;;;;20.33;13.50;;;;;;;10.72;100.00;101483.13;10366702;28;20572;-76
